createdAt,value
2019-05-22T00:00:48.934Z,98250.75
2019-05-22T00:03:24.946Z,98252.10
2019-05-22T00:05:58.287Z,98246.91
2019-05-22T00:08:33.987Z,98247.99
2019-05-22T00:11:11.110Z,98259.22
2019-05-22T00:13:47.370Z,98252.68
2019-05-22T00:16:23.187Z,98247.77
2019-05-22T00:18:55.234Z,98245.03
2019-05-22T00:21:31.653Z,98242.98
2019-05-22T00:24:08.042Z,98243.21
2019-05-22T00:26:43.854Z,98245.50
2019-05-22T00:29:16.970Z,98252.48
2019-05-22T00:31:51.144Z,98243.95
2019-05-22T00:34:26.016Z,98241.28
2019-05-22T00:36:59.265Z,98237.19
2019-05-22T00:39:32.012Z,98244.02
2019-05-22T00:42:11.427Z,98243.52
2019-05-22T00:44:44.952Z,98244.23
2019-05-22T00:47:19.820Z,98250.28
2019-05-22T00:49:55.176Z,98250.14
2019-05-22T00:52:45.095Z,98236.90
2019-05-22T00:55:56.692Z,98240.52
2019-05-22T00:58:34.488Z,98237.86
2019-05-22T01:01:22.794Z,98241.59
2019-05-22T01:03:57.902Z,98234.86
2019-05-22T01:06:32.760Z,98242.30
2019-05-22T01:09:08.639Z,98238.08
2019-05-22T01:11:42.793Z,98248.09
2019-05-22T01:14:14.613Z,98240.63
2019-05-22T01:16:49.448Z,98236.76
2019-05-22T01:19:24.900Z,98247.00
2019-05-22T01:21:58.241Z,98254.22
2019-05-22T01:24:33.150Z,98239.80
2019-05-22T01:27:08.164Z,98257.48
2019-05-22T01:29:40.167Z,98257.63
2019-05-22T01:32:29.592Z,98249.42
2019-05-22T01:35:13.434Z,98254.86
2019-05-22T01:37:48.393Z,98244.56
2019-05-22T01:40:32.605Z,98234.91
2019-05-22T01:43:06.482Z,98242.09
2019-05-22T01:45:52.496Z,98237.17
2019-05-22T01:48:33.722Z,98238.50
2019-05-22T01:51:07.276Z,98237.66
2019-05-22T01:53:42.163Z,98237.69
2019-05-22T01:56:17.123Z,98228.59
2019-05-22T01:58:52.403Z,98233.45
2019-05-22T02:01:27.212Z,98234.50
2019-05-22T02:04:00.009Z,98234.13
2019-05-22T02:06:36.918Z,98229.67
2019-05-22T02:09:28.661Z,98225.84
2019-05-22T02:12:17.559Z,98231.23
2019-05-22T02:14:50.651Z,98223.80
2019-05-22T02:17:31.866Z,98230.86
2019-05-22T02:20:16.254Z,98221.70
2019-05-22T02:22:50.588Z,98223.52
2019-05-22T02:25:25.597Z,98231.46
2019-05-22T02:28:00.725Z,98232.81
2019-05-22T02:30:36.012Z,98228.34
2019-05-22T02:33:11.084Z,98242.83
2019-05-22T02:35:47.361Z,98240.40
2019-05-22T02:38:22.172Z,98236.53
2019-05-22T02:40:55.731Z,98231.36
2019-05-22T02:43:29.127Z,98230.28
2019-05-22T02:46:06.824Z,98225.74
2019-05-22T02:48:42.499Z,98239.38
2019-05-22T02:51:16.524Z,98234.69
2019-05-22T02:53:49.911Z,98238.25
2019-05-22T02:56:22.004Z,98235.46
2019-05-22T02:58:55.634Z,98221.77
2019-05-22T03:01:32.466Z,98233.81
2019-05-22T03:04:09.691Z,98223.69
2019-05-22T03:06:41.678Z,98209.69
2019-05-22T03:09:18.679Z,98211.84
2019-05-22T03:12:01.474Z,98214.88
2019-05-22T03:14:35.997Z,98222.69
2019-05-22T03:17:19.461Z,98244.12
2019-05-22T03:19:53.055Z,98242.44
2019-05-22T03:22:30.906Z,98101.80
2019-05-22T03:25:17.680Z,98257.73
2019-05-22T03:27:51.965Z,98256.77
2019-05-22T03:30:31.114Z,98267.86
2019-05-22T03:33:05.853Z,98272.55
2019-05-22T03:35:48.996Z,98272.08
2019-05-22T03:38:23.038Z,98275.11
2019-05-22T03:40:55.885Z,98281.13
2019-05-22T03:43:33.235Z,98284.72
2019-05-22T03:46:23.377Z,98283.42
2019-05-22T03:48:56.578Z,98295.70
2019-05-22T03:51:31.367Z,98313.24
2019-05-22T03:54:06.705Z,98303.08
2019-05-22T03:56:42.468Z,98316.53
2019-05-22T03:59:16.270Z,98312.04
2019-05-22T04:01:51.462Z,98313.06
2019-05-22T04:04:37.069Z,98318.14
2019-05-22T04:07:19.137Z,98323.48
2019-05-22T04:09:57.471Z,98314.52
2019-05-22T04:12:29.184Z,98321.70
2019-05-22T04:15:14.123Z,98324.70
2019-05-22T04:17:49.693Z,98318.97
2019-05-22T04:20:21.554Z,98334.72
2019-05-22T04:22:57.782Z,98333.50
2019-05-22T04:25:33.673Z,98325.66
2019-05-22T04:28:06.964Z,98329.78
2019-05-22T04:30:41.043Z,98328.36
2019-05-22T04:33:14.526Z,98325.66
2019-05-22T04:35:50.059Z,98335.52
2019-05-22T04:38:23.064Z,98324.42
2019-05-22T04:40:57.968Z,98320.84
2019-05-22T04:43:34.156Z,98335.33
2019-05-22T04:46:09.704Z,98325.08
2019-05-22T04:48:46.441Z,98323.34
2019-05-22T04:51:28.979Z,98318.45
2019-05-22T04:54:02.458Z,98312.40
2019-05-22T04:56:35.519Z,98327.30
2019-05-22T04:59:10.662Z,98310.12
2019-05-22T05:01:42.767Z,98329.42
2019-05-22T05:04:17.172Z,98330.08
2019-05-22T05:06:50.003Z,98339.33
2019-05-22T05:09:25.943Z,98330.43
2019-05-22T05:11:59.227Z,98339.79
2019-05-22T05:14:30.494Z,98345.50
2019-05-22T05:17:07.362Z,98351.16
2019-05-22T05:19:40.279Z,98336.69
2019-05-22T05:22:13.633Z,98341.38
2019-05-22T05:24:45.335Z,98343.07
2019-05-22T05:27:18.977Z,98342.16
2019-05-22T05:29:50.473Z,98338.79
2019-05-22T05:32:23.394Z,98351.11
2019-05-22T05:35:17.768Z,98352.73
2019-05-22T05:37:50.047Z,98344.86
2019-05-22T05:40:39.421Z,98342.53
2019-05-22T05:43:17.036Z,98340.30
2019-05-22T05:45:51.579Z,98337.51
2019-05-22T05:48:25.884Z,98325.28
2019-05-22T05:51:40.690Z,98341.52
2019-05-22T05:54:15.986Z,98330.67
2019-05-22T05:56:50.699Z,98322.63
2019-05-22T05:59:26.753Z,98325.08
2019-05-22T06:02:00.090Z,98317.48
2019-05-22T06:04:35.633Z,98315.66
2019-05-22T06:07:25.278Z,98316.77
2019-05-22T06:10:42.396Z,98325.22
2019-05-22T06:13:15.877Z,98322.89
2019-05-22T06:16:33.418Z,98321.10
2019-05-22T06:19:09.011Z,98326.61
2019-05-22T06:21:46.333Z,98341.06
2019-05-22T06:24:25.403Z,98346.47
2019-05-22T06:27:37.118Z,98348.44
2019-05-22T06:30:19.486Z,98341.92
2019-05-22T06:33:34.064Z,98343.30
2019-05-22T06:36:10.517Z,98343.26
2019-05-22T06:39:10.059Z,98354.87
2019-05-22T06:41:43.971Z,98351.86
2019-05-22T06:44:36.150Z,98351.14
2019-05-22T06:47:24.362Z,98357.30
2019-05-22T06:49:58.538Z,98353.93
2019-05-22T06:52:30.438Z,98356.31
2019-05-22T06:55:17.518Z,98359.43
2019-05-22T06:57:52.705Z,98354.19
2019-05-22T07:00:28.096Z,98360.73
2019-05-22T07:03:00.601Z,98363.14
2019-05-22T07:05:33.889Z,98345.38
2019-05-22T07:08:09.470Z,98376.64
2019-05-22T07:10:43.666Z,98360.66
2019-05-22T07:13:18.167Z,98387.34
2019-05-22T07:15:55.400Z,98374.45
2019-05-22T07:18:29.765Z,98365.19
2019-05-22T07:21:01.768Z,98380.52
2019-05-22T07:23:34.210Z,98386.73
2019-05-22T07:26:05.963Z,98389.95
2019-05-22T07:28:39.937Z,98394.17
2019-05-22T07:31:11.564Z,98394.44
2019-05-22T07:33:50.158Z,98397.25
2019-05-22T07:36:28.527Z,98407.03
2019-05-22T07:39:00.044Z,98393.02
2019-05-22T07:41:31.705Z,98406.56
2019-05-22T07:44:03.450Z,98399.84
2019-05-22T07:46:36.485Z,98400.50
2019-05-22T07:49:10.375Z,98412.73
2019-05-22T07:51:56.203Z,98420.01
2019-05-22T07:54:18.088Z,98404.33
2019-05-22T07:56:51.172Z,98404.33
2019-05-22T07:59:24.821Z,98406.45
2019-05-22T08:01:59.663Z,98395.70
2019-05-22T08:04:33.206Z,98409.56
2019-05-22T08:07:10.860Z,98407.13
2019-05-22T08:09:45.927Z,98410.84
2019-05-22T08:12:18.944Z,98412.38
2019-05-22T08:14:50.996Z,98419.05
2019-05-22T08:17:25.306Z,98428.58
2019-05-22T08:20:00.033Z,98433.63
2019-05-22T08:22:35.164Z,98424.94
2019-05-22T08:25:16.302Z,98427.08
2019-05-22T08:27:50.302Z,98419.34
2019-05-22T08:30:24.587Z,98419.06
2019-05-22T08:33:01.576Z,98421.50
2019-05-22T08:35:35.472Z,98419.19
2019-05-22T08:38:11.876Z,98426.17
2019-05-22T08:40:44.151Z,98427.36
2019-05-22T08:43:19.961Z,98417.50
2019-05-22T08:45:57.246Z,98436.53
2019-05-22T08:48:31.348Z,98427.75
2019-05-22T08:51:06.577Z,98440.06
2019-05-22T08:53:47.236Z,98441.13
2019-05-22T08:56:18.635Z,98440.02
2019-05-22T08:58:54.359Z,98444.09
2019-05-22T09:01:30.453Z,98445.56
2019-05-22T09:04:05.283Z,98449.19
2019-05-22T09:06:43.419Z,98449.91
2019-05-22T09:09:18.032Z,98443.05
2019-05-22T09:11:53.304Z,98451.16
2019-05-22T09:14:35.591Z,98448.50
2019-05-22T09:17:07.546Z,98463.91
2019-05-22T09:19:41.706Z,98461.51
2019-05-22T09:22:39.577Z,98474.48
2019-05-22T09:25:16.627Z,98463.20
2019-05-22T09:27:51.237Z,98470.81
2019-05-22T09:30:23.543Z,98470.16
2019-05-22T09:32:58.081Z,98471.89
2019-05-22T09:35:31.540Z,98467.03
2019-05-22T09:38:06.649Z,98482.59
2019-05-22T09:40:46.551Z,98483.03
2019-05-22T09:43:26.528Z,98484.00
2019-05-22T09:46:06.274Z,98490.56
2019-05-22T09:48:39.917Z,98476.52
2019-05-22T09:51:11.547Z,98490.52
2019-05-22T09:53:49.122Z,98489.10
2019-05-22T09:56:22.604Z,98491.08
2019-05-22T09:58:58.872Z,98497.91
2019-05-22T10:01:31.603Z,98503.58
2019-05-22T10:04:08.536Z,98504.43
2019-05-22T10:06:47.708Z,98511.22
2019-05-22T10:09:22.951Z,98510.01
2019-05-22T10:11:56.484Z,98520.92
2019-05-22T10:14:29.561Z,98520.61
2019-05-22T10:17:03.370Z,98517.95
2019-05-22T10:19:35.216Z,98515.03
2019-05-22T10:22:10.581Z,98532.38
2019-05-22T10:24:49.649Z,98533.80
2019-05-22T10:27:19.015Z,98534.52
2019-05-22T10:29:53.411Z,98528.55
2019-05-22T10:32:32.549Z,98533.59
2019-05-22T10:35:16.978Z,98523.91
2019-05-22T10:37:52.794Z,98529.86
2019-05-22T10:40:27.289Z,98529.11
2019-05-22T10:42:59.721Z,98530.66
2019-05-22T10:45:34.751Z,98523.02
2019-05-22T10:48:06.823Z,98530.87
2019-05-22T10:50:39.858Z,98528.78
2019-05-22T10:53:12.075Z,98526.84
2019-05-22T10:55:48.993Z,98531.80
2019-05-22T10:58:24.473Z,98524.52
2019-05-22T11:00:58.202Z,98526.78
2019-05-22T11:03:32.452Z,98515.94
2019-05-22T11:06:08.113Z,98512.59
2019-05-22T11:08:42.927Z,98521.95
2019-05-22T11:11:16.227Z,98530.27
2019-05-22T11:14:00.510Z,98505.43
2019-05-22T11:16:24.984Z,98511.70
2019-05-22T11:18:58.336Z,98509.90
2019-05-22T11:21:30.163Z,98511.45
2019-05-22T11:24:03.091Z,98517.00
2019-05-22T11:26:35.847Z,98519.88
2019-05-22T11:29:11.553Z,98518.22
2019-05-22T11:31:47.064Z,98525.98
2019-05-22T11:34:21.412Z,98522.84
2019-05-22T11:36:54.601Z,98530.94
2019-05-22T11:39:38.702Z,98511.53
2019-05-22T11:42:08.082Z,98525.88
2019-05-22T11:44:41.939Z,98515.80
2019-05-22T11:47:17.668Z,98520.38
2019-05-22T11:49:50.543Z,98533.91
2019-05-22T11:52:27.398Z,98535.59
2019-05-22T11:55:01.988Z,98541.45
2019-05-22T11:57:47.898Z,98542.11
2019-05-22T12:00:23.609Z,98533.54
2019-05-22T12:02:57.869Z,98542.23
2019-05-22T12:05:31.575Z,98544.22
2019-05-22T12:08:08.877Z,98535.92
2019-05-22T12:10:43.082Z,98566.02
2019-05-22T12:13:19.709Z,98543.55
2019-05-22T12:15:52.478Z,98561.98
2019-05-22T12:18:24.366Z,98548.45
2019-05-22T12:20:57.761Z,98572.36
2019-05-22T12:23:31.538Z,98556.53
2019-05-22T12:26:04.991Z,98550.69
2019-05-22T12:28:40.516Z,98542.09
2019-05-22T12:31:13.304Z,98559.84
2019-05-22T12:33:50.988Z,98546.32
2019-05-22T12:36:26.064Z,98554.42
2019-05-22T12:39:00.596Z,98565.92
2019-05-22T12:41:34.429Z,98558.20
2019-05-22T12:44:06.807Z,98555.22
2019-05-22T12:46:41.799Z,98547.98
2019-05-22T12:49:16.273Z,98551.47
2019-05-22T12:51:49.593Z,98562.94
2019-05-22T12:54:21.554Z,98590.48
2019-05-22T12:56:54.337Z,98578.41
2019-05-22T12:59:27.296Z,98596.63
2019-05-22T13:02:02.560Z,98595.68
2019-05-22T13:04:36.889Z,98498.12
2019-05-22T13:07:09.732Z,98586.42
2019-05-22T13:09:42.349Z,98565.88
2019-05-22T13:12:16.565Z,98584.36
2019-05-22T13:15:08.204Z,98572.41
2019-05-22T13:17:32.343Z,98594.11
2019-05-22T13:20:19.396Z,98589.49
2019-05-22T13:22:56.183Z,98594.45
2019-05-22T13:25:35.224Z,98606.23
2019-05-22T13:28:14.434Z,98581.00
2019-05-22T13:30:53.969Z,98596.60
2019-05-22T13:33:29.418Z,98604.41
2019-05-22T13:36:05.026Z,98622.23
2019-05-22T13:38:39.604Z,98611.73
2019-05-22T13:41:16.556Z,98603.05
2019-05-22T13:43:49.705Z,98615.25
2019-05-22T13:46:22.648Z,98623.28
2019-05-22T13:48:58.620Z,98625.25
2019-05-22T13:51:30.981Z,98615.64
2019-05-22T13:54:05.497Z,98625.64
2019-05-22T13:56:41.127Z,98633.92
2019-05-22T13:59:13.011Z,98633.87
2019-05-22T14:01:46.556Z,98636.42
2019-05-22T14:05:38.724Z,98631.84
2019-05-22T14:08:14.370Z,98630.09
2019-05-22T14:10:50.025Z,98627.07
2019-05-22T14:13:27.096Z,98641.34
2019-05-22T14:16:01.851Z,98640.12
2019-05-22T14:18:35.603Z,98644.39
2019-05-22T14:21:14.705Z,98638.59
2019-05-22T14:23:48.405Z,98641.17
2019-05-22T14:26:25.392Z,98645.14
2019-05-22T14:28:59.980Z,98646.25
2019-05-22T14:31:44.933Z,98643.45
2019-05-22T14:34:17.981Z,98652.75
2019-05-22T14:36:52.531Z,98651.23
2019-05-22T14:39:26.704Z,98646.27
2019-05-22T14:42:03.112Z,98633.46
2019-05-22T14:44:35.296Z,98658.83
2019-05-22T14:47:14.476Z,98651.97
2019-05-22T14:49:47.481Z,98648.25
2019-05-22T14:52:22.984Z,98652.64
2019-05-22T14:54:59.208Z,98662.73
2019-05-22T14:57:34.468Z,98665.29
2019-05-22T15:00:19.592Z,98652.29
2019-05-22T15:02:56.514Z,98653.36
2019-05-22T15:05:28.511Z,98654.98
2019-05-22T15:08:02.491Z,98646.82
2019-05-22T15:10:37.856Z,98513.28
2019-05-22T15:13:11.006Z,98647.96
2019-05-22T15:16:00.764Z,98668.56
2019-05-22T15:18:35.360Z,98657.96
2019-05-22T15:21:19.908Z,98641.23
2019-05-22T15:23:55.382Z,98650.25
2019-05-22T15:26:27.635Z,98677.58
2019-05-22T15:29:00.024Z,98645.25
2019-05-22T15:31:32.121Z,98625.72
2019-05-22T15:34:05.087Z,98666.71
2019-05-22T15:36:39.384Z,98656.09
2019-05-22T15:39:15.480Z,98652.23
2019-05-22T15:41:50.794Z,98639.91
2019-05-22T15:44:24.800Z,98661.05
2019-05-22T15:46:58.117Z,98653.63
2019-05-22T15:49:31.700Z,98645.67
2019-05-22T15:52:07.223Z,98643.02
2019-05-22T15:54:40.375Z,98653.70
2019-05-22T15:57:13.123Z,98656.11
2019-05-22T15:59:46.550Z,98632.27
2019-05-22T16:02:21.878Z,98652.58
2019-05-22T16:04:53.321Z,98656.28
2019-05-22T16:07:32.052Z,98657.45
2019-05-22T16:10:16.187Z,98652.68
2019-05-22T16:12:50.091Z,98660.33
2019-05-22T16:15:29.499Z,98673.48
2019-05-22T16:18:11.647Z,98663.51
2019-05-22T16:20:39.494Z,98671.75
2019-05-22T16:23:11.941Z,98656.92
2019-05-22T16:25:46.393Z,98673.21
2019-05-22T16:28:19.592Z,98436.86
2019-05-22T16:30:53.240Z,98658.30
2019-05-22T16:33:29.032Z,98674.73
2019-05-22T16:36:05.654Z,98688.20
2019-05-22T16:38:39.987Z,98687.78
2019-05-22T16:41:12.614Z,98683.30
2019-05-22T16:43:49.460Z,98692.03
2019-05-22T16:46:27.405Z,98669.92
2019-05-22T16:49:00.470Z,98669.38
2019-05-22T16:51:34.605Z,98685.27
2019-05-22T16:54:08.926Z,98685.66
2019-05-22T16:56:43.139Z,98692.70
2019-05-22T16:59:17.742Z,98677.03
2019-05-22T17:01:59.437Z,98694.80
2019-05-22T17:04:28.045Z,98691.42
2019-05-22T17:07:01.482Z,98701.81
2019-05-22T17:09:34.294Z,98701.33
2019-05-22T17:12:07.857Z,98708.04
2019-05-22T17:14:42.040Z,98707.03
2019-05-22T17:17:18.965Z,98711.86
2019-05-22T17:19:51.980Z,98709.95
2019-05-22T17:22:27.868Z,98713.14
2019-05-22T17:25:13.624Z,98602.70
2019-05-22T17:27:45.869Z,98711.86
2019-05-22T17:30:21.323Z,98715.94
2019-05-22T17:32:55.362Z,98716.57
2019-05-22T17:35:28.083Z,98708.82
2019-05-22T17:38:01.059Z,98710.14
2019-05-22T17:40:37.677Z,98709.68
2019-05-22T17:43:12.181Z,98701.28
2019-05-22T17:45:49.902Z,98715.25
2019-05-22T17:48:22.813Z,98716.20
2019-05-22T17:50:56.440Z,98721.59
2019-05-22T17:53:28.231Z,98720.27
2019-05-22T17:56:02.677Z,98707.13
2019-05-22T17:58:38.695Z,98724.61
2019-05-22T18:01:14.945Z,98729.63
2019-05-22T18:03:49.113Z,98736.84
2019-05-22T18:06:23.881Z,98730.58
2019-05-22T18:08:59.441Z,98738.61
2019-05-22T18:11:31.964Z,98735.69
2019-05-22T18:14:06.191Z,98734.36
2019-05-22T18:16:42.794Z,98726.16
2019-05-22T18:19:18.261Z,98738.98
2019-05-22T18:21:51.877Z,98614.05
2019-05-22T18:24:25.183Z,98728.89
2019-05-22T18:26:57.481Z,98724.83
2019-05-22T18:29:32.468Z,98717.25
2019-05-22T18:32:06.714Z,98741.54
2019-05-22T18:34:40.789Z,98738.29
2019-05-22T18:37:12.663Z,98735.96
2019-05-22T18:39:45.256Z,98745.55
2019-05-22T18:42:20.401Z,98729.71
2019-05-22T18:44:54.029Z,98744.41
2019-05-22T18:47:28.710Z,98753.95
2019-05-22T18:50:14.588Z,98759.65
2019-05-22T18:52:49.370Z,98744.05
2019-05-22T18:55:25.868Z,98755.50
2019-05-22T18:58:00.409Z,98757.56
2019-05-22T19:00:33.784Z,98764.90
2019-05-22T19:03:07.096Z,98767.91
2019-05-22T19:05:41.255Z,98770.28
2019-05-22T19:08:13.260Z,98767.45
2019-05-22T19:10:51.470Z,98773.66
2019-05-22T19:13:28.857Z,98778.41
2019-05-22T19:16:01.229Z,98778.60
2019-05-22T19:18:34.144Z,98769.46
2019-05-22T19:21:06.587Z,98775.77
2019-05-22T19:23:41.008Z,98786.81
2019-05-22T19:26:12.352Z,98777.96
2019-05-22T19:28:45.655Z,98787.59
2019-05-22T19:31:21.622Z,98786.81
2019-05-22T19:33:56.713Z,98791.46
2019-05-22T19:36:28.512Z,98782.47
2019-05-22T19:39:02.421Z,98786.31
2019-05-22T19:41:35.278Z,98810.27
2019-05-22T19:44:10.863Z,98804.98
2019-05-22T19:46:45.085Z,98811.20
2019-05-22T19:49:18.935Z,98801.51
2019-05-22T19:51:52.321Z,98808.00
2019-05-22T19:54:24.883Z,98813.47
2019-05-22T19:57:01.658Z,98812.37
2019-05-22T19:59:34.032Z,98811.47
2019-05-22T20:02:09.792Z,98823.01
2019-05-22T20:04:41.885Z,98811.69
2019-05-22T20:07:15.738Z,98819.91
2019-05-22T20:09:47.280Z,98811.05
2019-05-22T20:12:24.763Z,98806.90
2019-05-22T20:14:56.850Z,98804.44
2019-05-22T20:17:33.308Z,98805.77
2019-05-22T20:20:17.571Z,98807.86
2019-05-22T20:22:53.636Z,98812.73
2019-05-22T20:25:25.862Z,98815.39
2019-05-22T20:28:01.470Z,98809.05
2019-05-22T20:30:34.379Z,98816.26
2019-05-22T20:33:07.321Z,98808.13
2019-05-22T20:35:39.512Z,98821.92
2019-05-22T20:38:13.080Z,98824.11
2019-05-22T20:40:48.762Z,98809.95
2019-05-22T20:43:22.604Z,98818.77
2019-05-22T20:45:58.192Z,98818.30
2019-05-22T20:48:30.705Z,98821.69
2019-05-22T20:51:07.784Z,98806.94
2019-05-22T20:53:54.025Z,98822.83
2019-05-22T20:56:23.824Z,98827.25
2019-05-22T20:58:56.618Z,98833.59
2019-05-22T21:01:33.359Z,98819.44
2019-05-22T21:04:11.020Z,98818.39
2019-05-22T21:06:54.573Z,98823.19
2019-05-22T21:09:29.789Z,98826.61
2019-05-22T21:12:04.926Z,98822.42
2019-05-22T21:14:38.156Z,98825.84
2019-05-22T21:17:12.123Z,98828.86
2019-05-22T21:19:47.459Z,98846.06
2019-05-22T21:22:25.871Z,98830.86
2019-05-22T21:25:01.854Z,98836.34
2019-05-22T21:27:44.192Z,98824.23
2019-05-22T21:30:19.048Z,98827.34
2019-05-22T21:32:55.816Z,98809.95
2019-05-22T21:35:33.781Z,98819.99
2019-05-22T21:38:09.490Z,98825.20
2019-05-22T21:40:41.825Z,98840.22
2019-05-22T21:43:27.178Z,98841.76
2019-05-22T21:46:02.300Z,98849.88
2019-05-22T21:48:38.368Z,98853.39
2019-05-22T21:51:11.976Z,98846.12
2019-05-22T21:53:46.799Z,98865.70
2019-05-22T21:56:18.833Z,98867.85
2019-05-22T21:58:55.113Z,98867.11
2019-05-22T22:01:34.377Z,98870.63
2019-05-22T22:04:19.630Z,98875.24
2019-05-22T22:06:55.359Z,98881.48
2019-05-22T22:09:30.501Z,98873.31
2019-05-22T22:12:07.498Z,98879.19
2019-05-22T22:14:43.227Z,98881.75
2019-05-22T22:17:20.544Z,98878.15
2019-05-22T22:19:54.918Z,98872.20
2019-05-22T22:22:31.455Z,98879.78
2019-05-22T22:25:18.669Z,98880.23
2019-05-22T22:27:52.971Z,98884.02
2019-05-22T22:30:30.249Z,98884.13
2019-05-22T22:33:07.782Z,98885.83
2019-05-22T22:35:41.117Z,98887.89
2019-05-22T22:38:13.649Z,98881.28
2019-05-22T22:40:48.832Z,98889.59
2019-05-22T22:43:21.671Z,98889.03
2019-05-22T22:46:18.681Z,98885.16
2019-05-22T22:48:55.199Z,98886.22
2019-05-22T22:51:30.524Z,98892.34
2019-05-22T22:54:07.836Z,98890.94
2019-05-22T22:56:42.333Z,98891.86
2019-05-22T22:59:18.882Z,98894.24
2019-05-22T23:01:53.342Z,98890.94
2019-05-22T23:04:29.328Z,98899.45
2019-05-22T23:07:07.705Z,98897.16
2019-05-22T23:09:44.164Z,98901.69
2019-05-22T23:12:21.859Z,98896.52
2019-05-22T23:14:58.516Z,98899.73
2019-05-22T23:17:32.133Z,98907.38
2019-05-22T23:20:14.844Z,98902.27
2019-05-22T23:22:47.472Z,98902.38
2019-05-22T23:25:20.051Z,98900.94
2019-05-22T23:27:52.534Z,98903.78
2019-05-22T23:30:27.749Z,98907.09
2019-05-22T23:33:05.483Z,98911.52
2019-05-22T23:35:38.423Z,98918.72
2019-05-22T23:38:11.703Z,98910.39
2019-05-22T23:40:46.183Z,98914.55
2019-05-22T23:43:19.623Z,98914.19
2019-05-22T23:45:54.895Z,98920.59
2019-05-22T23:48:30.612Z,98899.98
2019-05-22T23:51:03.926Z,98848.53
2019-05-22T23:53:39.020Z,98897.27
2019-05-22T23:56:14.097Z,98895.27
2019-05-22T23:58:52.587Z,98894.98
